createdAt,value
2018-01-24T00:00:27.696Z,0
2018-01-24T00:01:36.533Z,0
2018-01-24T00:02:45.365Z,0
2018-01-24T00:03:54.294Z,0
2018-01-24T00:05:03.123Z,0
2018-01-24T00:06:11.956Z,0
2018-01-24T00:07:20.787Z,0
2018-01-24T00:08:29.893Z,0
2018-01-24T00:09:38.724Z,0
2018-01-24T00:10:47.559Z,0
2018-01-24T00:11:56.390Z,0
2018-01-24T00:13:05.223Z,0
2018-01-24T00:14:14.055Z,0
2018-01-24T00:15:22.885Z,0
2018-01-24T00:16:31.715Z,0
2018-01-24T00:17:40.546Z,0
2018-01-24T00:18:49.377Z,0
2018-01-24T00:19:58.207Z,0
2018-01-24T00:21:07.042Z,0
2018-01-24T00:22:15.866Z,0
2018-01-24T00:23:24.696Z,0
2018-01-24T00:24:33.528Z,0
2018-01-24T00:25:42.360Z,0
2018-01-24T00:26:51.240Z,0
2018-01-24T00:28:00.072Z,0
2018-01-24T00:29:08.902Z,0
2018-01-24T00:30:17.733Z,0
2018-01-24T00:31:26.567Z,0
2018-01-24T00:32:35.975Z,0
2018-01-24T00:33:44.807Z,0
2018-01-24T00:34:53.639Z,0
2018-01-24T00:36:02.471Z,0
2018-01-24T00:37:11.303Z,0
2018-01-24T00:38:20.235Z,0
2018-01-24T00:39:29.061Z,0
2018-01-24T00:40:37.893Z,0
2018-01-24T00:41:46.724Z,0
2018-01-24T00:42:55.555Z,0
2018-01-24T00:44:04.635Z,0
2018-01-24T00:45:13.464Z,0
2018-01-24T00:46:22.297Z,0
2018-01-24T00:47:31.128Z,0
2018-01-24T00:48:39.961Z,0
2018-01-24T00:49:48.894Z,0
2018-01-24T00:50:57.725Z,0
2018-01-24T00:52:06.553Z,0
2018-01-24T00:53:15.386Z,0
2018-01-24T00:54:24.489Z,0
2018-01-24T00:55:33.320Z,0
2018-01-24T00:56:42.152Z,0
2018-01-24T00:57:50.984Z,0
2018-01-24T00:58:59.815Z,0
2018-01-24T01:00:08.647Z,0
2018-01-24T01:01:17.754Z,0
2018-01-24T01:02:26.595Z,0
2018-01-24T01:03:35.417Z,0
2018-01-24T01:04:44.246Z,0
2018-01-24T01:05:53.078Z,0
2018-01-24T01:07:01.914Z,0
2018-01-24T01:08:10.741Z,0
2018-01-24T01:09:19.572Z,0
2018-01-24T01:10:28.403Z,0
2018-01-24T01:11:37.235Z,0
2018-01-24T01:12:46.116Z,0
2018-01-24T01:13:54.946Z,0
2018-01-24T01:15:03.778Z,0
2018-01-24T01:16:12.610Z,0
2018-01-24T01:17:21.443Z,0
2018-01-24T01:18:30.375Z,0
2018-01-24T01:19:39.206Z,0
2018-01-24T01:20:48.038Z,0
2018-01-24T01:21:56.869Z,0
2018-01-24T01:23:05.698Z,0
2018-01-24T01:24:14.637Z,0
2018-01-24T01:25:23.464Z,0
2018-01-24T01:26:32.295Z,0
2018-01-24T01:27:41.128Z,0
2018-01-24T01:28:50.238Z,0
2018-01-24T01:29:59.073Z,0
2018-01-24T01:31:08.173Z,0
2018-01-24T01:32:17.007Z,0
2018-01-24T01:33:25.839Z,0
2018-01-24T01:34:34.940Z,0
2018-01-24T01:35:43.922Z,0
2018-01-24T01:36:52.753Z,0
2018-01-24T01:38:01.584Z,0
2018-01-24T01:39:10.415Z,0
2018-01-24T01:40:19.248Z,0
2018-01-24T01:41:28.079Z,0
2018-01-24T01:42:36.912Z,0
2018-01-24T01:43:45.749Z,0
2018-01-24T01:44:54.583Z,0
2018-01-24T01:46:03.417Z,0
2018-01-24T01:47:12.552Z,0
2018-01-24T01:48:21.383Z,0
2018-01-24T01:49:30.216Z,0
2018-01-24T01:50:39.047Z,0
2018-01-24T01:51:47.882Z,0
2018-01-24T01:52:56.911Z,0
2018-01-24T01:54:05.743Z,0
2018-01-24T01:55:14.575Z,0
2018-01-24T01:56:23.408Z,0
2018-01-24T01:57:32.241Z,0
2018-01-24T01:58:41.173Z,0
2018-01-24T01:59:50.007Z,0
2018-01-24T02:00:58.837Z,0
2018-01-24T02:02:08.215Z,0
2018-01-24T02:03:17.045Z,0
2018-01-24T02:04:25.979Z,0
2018-01-24T02:05:34.812Z,0
2018-01-24T02:06:43.647Z,0
2018-01-24T02:07:52.484Z,0
2018-01-24T02:09:01.312Z,0
2018-01-24T02:10:10.143Z,0
2018-01-24T02:11:18.976Z,0
2018-01-24T02:12:27.808Z,0
2018-01-24T02:13:36.643Z,0
2018-01-24T02:14:45.474Z,0
2018-01-24T02:15:54.604Z,0
2018-01-24T02:17:03.435Z,0
2018-01-24T02:18:12.269Z,0
2018-01-24T02:19:21.100Z,0
2018-01-24T02:20:29.932Z,0
2018-01-24T02:21:38.865Z,0
2018-01-24T02:22:47.698Z,0
2018-01-24T02:23:56.528Z,0
2018-01-24T02:25:05.361Z,0
2018-01-24T02:26:14.191Z,0
2018-01-24T02:27:23.123Z,0
2018-01-24T02:28:31.956Z,0
2018-01-24T02:29:40.790Z,0
2018-01-24T02:30:49.620Z,0
2018-01-24T02:31:58.454Z,0
2018-01-24T02:33:07.537Z,0
2018-01-24T02:34:16.369Z,0
2018-01-24T02:35:25.201Z,0
2018-01-24T02:36:34.031Z,0
2018-01-24T02:37:42.864Z,0
2018-01-24T02:38:51.896Z,0
2018-01-24T02:40:00.729Z,0
2018-01-24T02:41:09.837Z,0
2018-01-24T02:42:18.671Z,0
2018-01-24T02:43:27.507Z,0
2018-01-24T02:44:36.615Z,0
2018-01-24T02:45:45.445Z,0
2018-01-24T02:46:54.278Z,0
2018-01-24T02:48:03.111Z,0
2018-01-24T02:49:11.943Z,0
2018-01-24T02:50:20.776Z,0
2018-01-24T02:51:29.885Z,0
2018-01-24T02:52:38.716Z,0
2018-01-24T02:53:47.552Z,0
2018-01-24T02:54:56.383Z,0
2018-01-24T02:56:05.797Z,0
2018-01-24T02:57:14.630Z,0
2018-01-24T02:58:23.463Z,0
2018-01-24T02:59:32.298Z,0
2018-01-24T03:00:41.401Z,0
2018-01-24T03:01:50.607Z,0
2018-01-24T03:02:59.445Z,0
2018-01-24T03:04:08.273Z,0
2018-01-24T03:05:17.106Z,0
2018-01-24T03:06:25.941Z,0
2018-01-24T03:07:34.771Z,0
2018-01-24T03:08:43.605Z,0
2018-01-24T03:09:52.437Z,0
2018-01-24T03:11:01.270Z,0
2018-01-24T03:12:10.102Z,0
2018-01-24T03:13:18.936Z,0
2018-01-24T03:14:27.769Z,0
2018-01-24T03:15:36.874Z,0
2018-01-24T03:16:45.712Z,0
2018-01-24T03:17:54.820Z,0
2018-01-24T03:19:03.652Z,0
2018-01-24T03:20:12.484Z,0
2018-01-24T03:21:21.316Z,0
2018-01-24T03:22:30.148Z,0
2018-01-24T03:23:38.980Z,0
2018-01-24T03:24:47.811Z,0
2018-01-24T03:25:56.641Z,0
2018-01-24T03:27:05.472Z,0
2018-01-24T03:28:14.303Z,0
2018-01-24T03:29:23.186Z,0
2018-01-24T03:30:32.257Z,0
2018-01-24T03:31:41.059Z,0
2018-01-24T03:32:49.892Z,0
2018-01-24T03:33:58.725Z,0
2018-01-24T03:35:07.558Z,0
2018-01-24T03:36:16.641Z,0
2018-01-24T03:37:25.476Z,0
2018-01-24T03:38:34.312Z,0
2018-01-24T03:39:43.693Z,0
2018-01-24T03:40:52.525Z,0
2018-01-24T03:42:01.408Z,0
2018-01-24T03:43:10.517Z,0
2018-01-24T03:44:19.349Z,0
2018-01-24T03:45:28.181Z,0
2018-01-24T03:46:37.015Z,0
2018-01-24T03:47:46.148Z,0
2018-01-24T03:48:54.980Z,0
2018-01-24T03:50:03.812Z,0
2018-01-24T03:51:12.642Z,0
2018-01-24T03:52:21.474Z,0
2018-01-24T03:53:30.408Z,0
2018-01-24T03:54:39.239Z,0
2018-01-24T03:55:48.073Z,0
2018-01-24T03:56:56.906Z,0
2018-01-24T03:58:05.738Z,0
2018-01-24T03:59:14.721Z,0
2018-01-24T04:00:23.554Z,0
2018-01-24T04:01:32.388Z,0
2018-01-24T04:02:41.221Z,0
2018-01-24T04:03:50.056Z,0
2018-01-24T04:04:59.092Z,0
2018-01-24T04:06:08.199Z,0
2018-01-24T04:07:17.032Z,0
2018-01-24T04:08:25.867Z,0
2018-01-24T04:09:34.700Z,0
2018-01-24T04:10:43.534Z,0
2018-01-24T04:11:52.367Z,0
2018-01-24T04:13:01.203Z,0
2018-01-24T04:14:10.036Z,0
2018-01-24T04:15:18.869Z,0
2018-01-24T04:16:27.853Z,0
2018-01-24T04:17:36.687Z,0
2018-01-24T04:18:45.519Z,0
2018-01-24T04:19:54.352Z,0
2018-01-24T04:21:03.185Z,0
2018-01-24T04:22:12.168Z,0
2018-01-24T04:23:21.000Z,0
2018-01-24T04:24:29.832Z,0
2018-01-24T04:25:38.661Z,0
2018-01-24T04:26:47.494Z,0
2018-01-24T04:27:56.327Z,0
2018-01-24T04:29:05.434Z,0
2018-01-24T04:30:14.266Z,0
2018-01-24T04:31:23.098Z,0
2018-01-24T04:32:32.202Z,0
2018-01-24T04:33:41.037Z,0
2018-01-24T04:34:49.871Z,0
2018-01-24T04:35:58.704Z,0
2018-01-24T04:37:07.538Z,0
2018-01-24T04:38:16.371Z,0
2018-01-24T04:39:25.203Z,0
2018-01-24T04:40:34.035Z,0
2018-01-24T04:41:42.868Z,0
2018-01-24T04:42:51.980Z,0
2018-01-24T04:44:00.816Z,0
2018-01-24T04:45:09.645Z,0
2018-01-24T04:46:18.482Z,0
2018-01-24T04:47:27.312Z,0
2018-01-24T04:48:36.144Z,0
2018-01-24T04:49:44.978Z,0
2018-01-24T04:50:54.606Z,0
2018-01-24T04:52:03.441Z,0
2018-01-24T04:53:12.274Z,0
2018-01-24T04:54:21.108Z,0
2018-01-24T04:55:29.942Z,0
2018-01-24T04:56:38.827Z,0
2018-01-24T04:57:47.658Z,0
2018-01-24T04:58:56.812Z,0
2018-01-24T05:00:05.597Z,0
2018-01-24T05:01:14.428Z,0
2018-01-24T05:02:23.413Z,0
2018-01-24T05:03:32.245Z,0
2018-01-24T05:04:41.352Z,0
2018-01-24T05:05:50.185Z,0
2018-01-24T05:06:59.016Z,0
2018-01-24T05:08:08.405Z,0
2018-01-24T05:09:17.237Z,0
2018-01-24T05:10:26.070Z,0
2018-01-24T05:11:34.901Z,0
2018-01-24T05:12:43.734Z,0
2018-01-24T05:13:52.567Z,0
2018-01-24T05:15:01.401Z,0
2018-01-24T05:16:10.233Z,0
2018-01-24T05:17:19.068Z,0
2018-01-24T05:18:28.176Z,0
2018-01-24T05:19:37.009Z,0
2018-01-24T05:20:45.841Z,0
2018-01-24T05:21:54.672Z,0
2018-01-24T05:23:03.507Z,0
2018-01-24T05:24:12.340Z,0
2018-01-24T05:25:21.325Z,0
2018-01-24T05:26:30.161Z,0
2018-01-24T05:27:38.992Z,0
2018-01-24T05:28:47.829Z,0
2018-01-24T05:29:56.663Z,0
2018-01-24T05:31:05.495Z,0
2018-01-24T05:32:14.330Z,0
2018-01-24T05:33:23.162Z,0
2018-01-24T05:34:31.996Z,0
2018-01-24T05:35:40.830Z,0
2018-01-24T05:36:49.942Z,0
2018-01-24T05:37:58.774Z,0
2018-01-24T05:39:07.881Z,0
2018-01-24T05:40:16.711Z,0
2018-01-24T05:41:25.546Z,0
2018-01-24T05:42:34.479Z,0
2018-01-24T05:43:43.312Z,0
2018-01-24T05:44:52.144Z,0
2018-01-24T05:46:00.976Z,0
2018-01-24T05:47:09.811Z,0
2018-01-24T05:48:18.693Z,0
2018-01-24T05:49:27.526Z,0
2018-01-24T05:50:36.361Z,0
2018-01-24T05:51:45.211Z,0
2018-01-24T05:52:54.104Z,0
2018-01-24T05:54:02.941Z,0
2018-01-24T05:55:11.773Z,0
2018-01-24T05:56:20.606Z,0
2018-01-24T05:57:29.713Z,0
2018-01-24T05:58:38.546Z,0
2018-01-24T05:59:47.380Z,0
2018-01-24T06:00:56.214Z,0
2018-01-24T06:02:05.046Z,0
2018-01-24T06:03:13.880Z,0
2018-01-24T06:04:22.715Z,0
2018-01-24T06:05:31.549Z,0
2018-01-24T06:06:40.383Z,0
2018-01-24T06:07:49.216Z,0
2018-01-24T06:08:58.051Z,0
2018-01-24T06:10:06.883Z,0
2018-01-24T06:11:15.994Z,0
2018-01-24T06:12:24.827Z,0
2018-01-24T06:13:33.658Z,0
2018-01-24T06:14:42.764Z,0
2018-01-24T06:15:51.596Z,0
2018-01-24T06:17:00.431Z,0
2018-01-24T06:18:09.264Z,0
2018-01-24T06:19:18.400Z,0
2018-01-24T06:20:27.508Z,0
2018-01-24T06:21:36.342Z,0
2018-01-24T06:22:45.179Z,0
2018-01-24T06:23:54.010Z,0
2018-01-24T06:25:02.843Z,0
2018-01-24T06:26:11.676Z,0
2018-01-24T06:27:20.509Z,0
2018-01-24T06:28:29.343Z,0
2018-01-24T06:29:38.174Z,0
2018-01-24T06:30:47.160Z,0
2018-01-24T06:31:55.994Z,0
2018-01-24T06:33:04.828Z,0
2018-01-24T06:34:13.662Z,0
2018-01-24T06:35:22.498Z,0
2018-01-24T06:36:31.344Z,0
2018-01-24T06:37:40.180Z,0
2018-01-24T06:38:49.010Z,0
2018-01-24T06:39:57.849Z,0
2018-01-24T06:41:06.970Z,0
2018-01-24T06:42:15.798Z,0
2018-01-24T06:43:24.633Z,0
2018-01-24T06:44:33.467Z,0
2018-01-24T06:45:42.299Z,0
2018-01-24T06:46:51.157Z,0
2018-01-24T06:48:00.294Z,0
2018-01-24T06:49:09.128Z,0
2018-01-24T06:50:17.960Z,0
2018-01-24T06:51:26.793Z,0
2018-01-24T06:52:35.900Z,0
2018-01-24T06:53:44.887Z,0
2018-01-24T06:54:53.719Z,0
2018-01-24T06:56:02.551Z,0
2018-01-24T06:57:11.383Z,0
2018-01-24T06:58:20.217Z,0
2018-01-24T06:59:29.204Z,0
2018-01-24T07:00:38.310Z,0
2018-01-24T07:01:47.143Z,0
2018-01-24T07:02:55.977Z,0
2018-01-24T07:04:04.810Z,0
2018-01-24T07:05:13.967Z,0
2018-01-24T07:06:22.803Z,0
2018-01-24T07:07:31.908Z,0
2018-01-24T07:08:40.740Z,0
2018-01-24T07:09:49.574Z,0
2018-01-24T07:10:58.931Z,0
2018-01-24T07:12:07.767Z,0
2018-01-24T07:13:16.600Z,0
2018-01-24T07:14:25.433Z,0
2018-01-24T07:15:34.266Z,0
2018-01-24T07:16:43.150Z,0
2018-01-24T07:17:51.983Z,0
2018-01-24T07:19:00.815Z,0
2018-01-24T07:20:09.654Z,0
2018-01-24T07:21:18.486Z,0
2018-01-24T07:22:27.695Z,0
2018-01-24T07:23:36.838Z,0
2018-01-24T07:24:45.673Z,0
2018-01-24T07:25:54.507Z,0
2018-01-24T07:27:03.338Z,0
2018-01-24T07:28:12.223Z,0
2018-01-24T07:29:21.059Z,0
2018-01-24T07:30:29.894Z,0
2018-01-24T07:31:38.728Z,0
2018-01-24T07:32:47.561Z,0
2018-01-24T07:33:56.544Z,0
2018-01-24T07:35:05.653Z,0
2018-01-24T07:36:14.766Z,0
2018-01-24T07:37:23.598Z,0
2018-01-24T07:38:32.430Z,0
2018-01-24T07:39:41.564Z,0
2018-01-24T07:40:50.399Z,0
2018-01-24T07:41:59.233Z,0
2018-01-24T07:43:08.067Z,0
2018-01-24T07:44:16.902Z,0
2018-01-24T07:45:26.058Z,0
2018-01-24T07:46:34.891Z,0
2018-01-24T07:47:43.724Z,0
2018-01-24T07:48:52.559Z,0
2018-01-24T07:50:01.394Z,0
2018-01-24T07:51:10.479Z,0
2018-01-24T07:52:19.316Z,0
2018-01-24T07:53:28.420Z,0
2018-01-24T07:54:37.253Z,0
2018-01-24T07:55:46.086Z,0
2018-01-24T07:56:54.921Z,0
2018-01-24T07:58:03.756Z,0
2018-01-24T07:59:12.588Z,0
2018-01-24T08:00:21.696Z,0
2018-01-24T08:01:30.528Z,0
2018-01-24T08:02:39.410Z,0
2018-01-24T08:03:48.244Z,0
2018-01-24T08:04:57.356Z,0
2018-01-24T08:06:06.191Z,0
2018-01-24T08:07:15.027Z,0
2018-01-24T08:08:24.061Z,0
2018-01-24T08:09:32.899Z,0
2018-01-24T08:10:41.729Z,0
2018-01-24T08:11:50.565Z,0
2018-01-24T08:12:59.398Z,0
2018-01-24T08:14:08.233Z,0
2018-01-24T08:15:17.068Z,0
2018-01-24T08:16:25.900Z,0
2018-01-24T08:17:34.733Z,0
2018-01-24T08:18:43.568Z,0
2018-01-24T08:19:52.453Z,0
2018-01-24T08:21:01.287Z,0
2018-01-24T08:22:10.147Z,0
2018-01-24T08:23:18.954Z,0
2018-01-24T08:24:27.787Z,0
2018-01-24T08:25:36.772Z,0
2018-01-24T08:26:45.607Z,0
2018-01-24T08:27:54.443Z,0
2018-01-24T08:29:03.275Z,0
2018-01-24T08:30:12.112Z,0
2018-01-24T08:31:20.997Z,0
2018-01-24T08:32:29.827Z,0
2018-01-24T08:33:38.660Z,0
2018-01-24T08:34:47.499Z,0
2018-01-24T08:35:56.328Z,0
2018-01-24T08:37:05.162Z,0
2018-01-24T08:38:13.995Z,0
2018-01-24T08:39:22.828Z,0
2018-01-24T08:40:31.659Z,0
2018-01-24T08:41:40.495Z,0
2018-01-24T08:42:49.631Z,0
2018-01-24T08:43:58.466Z,0
2018-01-24T08:45:07.301Z,0
2018-01-24T08:46:16.135Z,0
2018-01-24T08:47:24.970Z,0
2018-01-24T08:48:33.954Z,0
2018-01-24T08:49:43.071Z,0
2018-01-24T08:50:51.904Z,0
2018-01-24T08:52:00.741Z,0
2018-01-24T08:53:09.575Z,0
2018-01-24T08:54:18.560Z,0
2018-01-24T08:55:27.395Z,0
2018-01-24T08:56:36.228Z,0
2018-01-24T08:57:45.063Z,0
2018-01-24T08:58:53.899Z,0
2018-01-24T09:00:02.730Z,0
2018-01-24T09:01:11.565Z,0
2018-01-24T09:02:20.407Z,0
2018-01-24T09:03:29.513Z,0
2018-01-24T09:04:38.349Z,0
2018-01-24T09:05:47.335Z,0
2018-01-24T09:06:56.172Z,0
2018-01-24T09:08:05.006Z,0
2018-01-24T09:09:13.840Z,0
2018-01-24T09:10:22.673Z,0
2018-01-24T09:11:31.931Z,0
2018-01-24T09:12:40.766Z,0
2018-01-24T09:13:49.599Z,0
2018-01-24T09:14:58.431Z,0
2018-01-24T09:16:07.266Z,0
2018-01-24T09:17:16.150Z,0
2018-01-24T09:18:24.982Z,0
2018-01-24T09:19:33.816Z,0
2018-01-24T09:20:42.924Z,0
2018-01-24T09:21:51.757Z,0
2018-01-24T09:23:00.589Z,0
2018-01-24T09:24:09.423Z,0
2018-01-24T09:25:18.255Z,0
2018-01-24T09:26:27.090Z,0
2018-01-24T09:27:35.926Z,0
2018-01-24T09:28:45.135Z,0
2018-01-24T09:29:53.971Z,0
2018-01-24T09:31:02.805Z,0
2018-01-24T09:32:11.642Z,0
2018-01-24T09:33:20.478Z,0
2018-01-24T09:34:29.515Z,0
2018-01-24T09:35:38.348Z,0
2018-01-24T09:36:47.186Z,0
2018-01-24T09:37:56.292Z,0
2018-01-24T09:39:05.125Z,0
2018-01-24T09:40:14.112Z,0
2018-01-24T09:41:22.945Z,0
2018-01-24T09:42:31.776Z,0
2018-01-24T09:43:40.610Z,0
2018-01-24T09:44:49.445Z,0
2018-01-24T09:45:58.531Z,0
2018-01-24T09:47:07.365Z,0
2018-01-24T09:48:16.198Z,0.28
2018-01-24T09:49:25.033Z,0
2018-01-24T09:50:33.870Z,1.72
2018-01-24T09:51:42.701Z,2.09
2018-01-24T09:52:51.534Z,2.86
2018-01-24T09:54:00.364Z,3.62
2018-01-24T09:55:09.200Z,5.34
2018-01-24T09:56:18.036Z,6.77
2018-01-24T09:57:27.019Z,7.63
2018-01-24T09:58:35.852Z,8.29
2018-01-24T09:59:44.958Z,8.87
2018-01-24T10:00:54.067Z,10.3
2018-01-24T10:02:02.905Z,11.35
2018-01-24T10:03:12.164Z,11.44
2018-01-24T10:04:21.001Z,12.49
2018-01-24T10:05:29.836Z,13.25
2018-01-24T10:06:38.672Z,14.21
2018-01-24T10:07:47.505Z,13.73
2018-01-24T10:08:56.641Z,15.54
2018-01-24T10:10:05.749Z,14.97
2018-01-24T10:11:14.586Z,14.3
2018-01-24T10:12:23.421Z,16.4
2018-01-24T10:13:32.256Z,16.5
2018-01-24T10:14:41.094Z,16.5
2018-01-24T10:15:49.930Z,17.93
2018-01-24T10:16:58.765Z,19.55
2018-01-24T10:18:07.598Z,19.37
2018-01-24T10:19:16.433Z,21.08
2018-01-24T10:20:25.692Z,20.32
2018-01-24T10:21:34.528Z,21.75
2018-01-24T10:22:43.360Z,21.94
2018-01-24T10:23:52.193Z,22.33
2018-01-24T10:25:01.026Z,23.85
2018-01-24T10:26:10.162Z,22.33
2018-01-24T10:27:18.999Z,22.89
2018-01-24T10:28:27.832Z,24.43
2018-01-24T10:29:36.669Z,24.52
2018-01-24T10:30:45.504Z,24.62
2018-01-24T10:31:54.488Z,28.24
2018-01-24T10:33:03.327Z,27.95
2018-01-24T10:34:12.161Z,27.95
2018-01-24T10:35:20.995Z,28.53
2018-01-24T10:36:29.832Z,29.1
2018-01-24T10:37:38.769Z,30.05
2018-01-24T10:38:47.605Z,29.19
2018-01-24T10:39:56.440Z,30.43
2018-01-24T10:41:05.276Z,30.63
2018-01-24T10:42:14.129Z,32.34
2018-01-24T10:43:23.045Z,33.01
2018-01-24T10:44:31.877Z,32.06
2018-01-24T10:45:40.709Z,33.39
2018-01-24T10:46:49.543Z,32.53
2018-01-24T10:47:58.380Z,33.2
2018-01-24T10:49:07.272Z,33.78
2018-01-24T10:50:16.107Z,33.2
2018-01-24T10:51:24.941Z,33.58
2018-01-24T10:52:33.775Z,33.39
2018-01-24T10:53:42.610Z,32.34
2018-01-24T10:54:51.713Z,33.97
2018-01-24T10:56:00.550Z,34.63
2018-01-24T10:57:09.383Z,35.59
2018-01-24T10:58:18.494Z,35.49
2018-01-24T10:59:27.599Z,36.44
2018-01-24T11:00:36.584Z,36.07
2018-01-24T11:01:45.417Z,34.34
2018-01-24T11:02:54.253Z,35.78
2018-01-24T11:04:03.088Z,34.44
2018-01-24T11:05:11.925Z,34.92
2018-01-24T11:06:20.760Z,36.64
2018-01-24T11:07:29.596Z,37.21
2018-01-24T11:08:38.432Z,37.49
2018-01-24T11:09:47.267Z,39.59
2018-01-24T11:10:56.100Z,39.22
2018-01-24T11:12:05.085Z,39.69
2018-01-24T11:13:13.919Z,39.69
2018-01-24T11:14:22.754Z,40.26
2018-01-24T11:15:31.587Z,40.26
2018-01-24T11:16:40.426Z,40.55
2018-01-24T11:17:49.363Z,41.12
2018-01-24T11:18:58.198Z,39.88
2018-01-24T11:20:07.034Z,38.26
2018-01-24T11:21:15.869Z,40.26
2018-01-24T11:22:24.707Z,41.88
2018-01-24T11:23:33.847Z,42.93
2018-01-24T11:24:42.681Z,43.03
2018-01-24T11:25:51.516Z,43.22
2018-01-24T11:27:00.349Z,43.89
2018-01-24T11:28:09.185Z,43.32
2018-01-24T11:29:18.023Z,43.7
2018-01-24T11:30:26.858Z,43.22
2018-01-24T11:31:35.692Z,43.03
2018-01-24T11:32:44.528Z,44.37
2018-01-24T11:33:53.363Z,44.74
2018-01-24T11:35:02.252Z,46.27
2018-01-24T11:36:11.087Z,46.48
2018-01-24T11:37:19.927Z,45.92
2018-01-24T11:38:28.761Z,46.77
2018-01-24T11:39:37.596Z,47.34
2018-01-24T11:40:46.583Z,48.39
2018-01-24T11:41:55.690Z,47.92
2018-01-24T11:43:04.525Z,48.21
2018-01-24T11:44:13.363Z,49.54
2018-01-24T11:45:22.198Z,50.31
2018-01-24T11:46:31.135Z,50.12
2018-01-24T11:47:39.970Z,48.68
2018-01-24T11:48:49.078Z,49.54
2018-01-24T11:49:57.913Z,49.73
2018-01-24T11:51:07.091Z,49.73
2018-01-24T11:52:15.932Z,50.78
2018-01-24T11:53:24.771Z,52.03
2018-01-24T11:54:33.606Z,50.49
2018-01-24T11:55:42.753Z,52.31
2018-01-24T11:56:51.904Z,52.12
2018-01-24T11:58:01.147Z,51.93
2018-01-24T11:59:10.430Z,51.93
2018-01-24T12:00:19.357Z,52.12
2018-01-24T12:01:28.213Z,52.59
2018-01-24T12:02:37.319Z,53.08
2018-01-24T12:03:46.570Z,52.98
2018-01-24T12:04:55.621Z,52.98
2018-01-24T12:06:04.516Z,52.12
2018-01-24T12:07:13.353Z,52.98
2018-01-24T12:08:22.418Z,53.27
2018-01-24T12:09:31.571Z,54.13
2018-01-24T12:10:40.478Z,53.55
2018-01-24T12:11:49.327Z,53.84
2018-01-24T12:12:58.179Z,53.45
2018-01-24T12:14:07.312Z,52.03
2018-01-24T12:15:16.450Z,52.22
2018-01-24T12:16:25.619Z,53.08
2018-01-24T12:17:34.475Z,53.27
2018-01-24T12:18:43.560Z,52.79
2018-01-24T12:19:52.438Z,53.93
2018-01-24T12:21:01.795Z,54.32
2018-01-24T12:22:10.646Z,54.41
2018-01-24T12:23:20.317Z,55.18
2018-01-24T12:24:29.579Z,54.41
2018-01-24T12:25:39.283Z,54.6
2018-01-24T12:26:48.362Z,53.93
2018-01-24T12:27:57.946Z,55.75
2018-01-24T12:29:07.645Z,55.46
2018-01-24T12:30:16.518Z,55.94
2018-01-24T12:31:25.361Z,55.27
2018-01-24T12:32:34.837Z,55.84
2018-01-24T12:33:43.985Z,55.27
2018-01-24T12:34:53.417Z,55.46
2018-01-24T12:36:02.580Z,56.04
2018-01-24T12:37:11.426Z,55.08
2018-01-24T12:38:20.801Z,55.84
2018-01-24T12:39:29.705Z,56.23
2018-01-24T12:40:38.850Z,55.84
2018-01-24T12:41:47.715Z,55.94
2018-01-24T12:42:56.667Z,56.04
2018-01-24T12:44:06.017Z,55.94
2018-01-24T12:45:15.150Z,55.18
2018-01-24T12:46:24.407Z,55.27
2018-01-24T12:47:33.761Z,54.32
2018-01-24T12:48:42.653Z,54.7
2018-01-24T12:49:51.932Z,55.84
2018-01-24T12:51:00.796Z,55.75
2018-01-24T12:52:09.644Z,56.51
2018-01-24T12:53:18.482Z,55.46
2018-01-24T12:54:27.324Z,56.7
2018-01-24T12:55:36.162Z,56.8
2018-01-24T12:56:44.989Z,55.08
2018-01-24T12:57:53.824Z,57.37
2018-01-24T12:59:02.656Z,57.18
2018-01-24T13:00:11.490Z,58.33
2018-01-24T13:01:20.324Z,58.33
2018-01-24T13:02:29.435Z,58.9
2018-01-24T13:03:38.271Z,58.99
2018-01-24T13:04:47.384Z,57.37
2018-01-24T13:05:56.222Z,58.42
2018-01-24T13:07:05.305Z,58.42
2018-01-24T13:08:14.415Z,58.93
2018-01-24T13:09:23.254Z,58.99
2018-01-24T13:10:32.091Z,59.41
2018-01-24T13:11:40.928Z,59.28
2018-01-24T13:12:49.912Z,58.93
2018-01-24T13:13:58.748Z,58.73
2018-01-24T13:15:07.581Z,58.93
2018-01-24T13:16:16.417Z,59.88
2018-01-24T13:17:25.530Z,60.17
2018-01-24T13:18:34.668Z,59.98
2018-01-24T13:19:43.505Z,60.46
2018-01-24T13:20:52.340Z,60.55
2018-01-24T13:22:01.178Z,60.36
2018-01-24T13:23:10.011Z,60.93
2018-01-24T13:24:19.147Z,59.98
2018-01-24T13:25:27.982Z,60.36
2018-01-24T13:26:36.821Z,60.07
2018-01-24T13:27:45.653Z,60.27
2018-01-24T13:28:54.493Z,60.07
2018-01-24T13:30:03.431Z,60.64
2018-01-24T13:31:12.266Z,60.46
2018-01-24T13:32:21.375Z,60.27
2018-01-24T13:33:30.212Z,60.17
2018-01-24T13:34:39.048Z,60.36
2018-01-24T13:35:47.883Z,59.98
2018-01-24T13:36:56.722Z,60.07
2018-01-24T13:38:05.557Z,60.36
2018-01-24T13:39:14.393Z,60.07
2018-01-24T13:40:23.227Z,60.27
2018-01-24T13:41:32.363Z,60.36
2018-01-24T13:42:41.197Z,60.17
2018-01-24T13:43:50.034Z,60.46
2018-01-24T13:44:59.142Z,59.78
2018-01-24T13:46:08.255Z,60.46
2018-01-24T13:47:17.090Z,60.07
2018-01-24T13:48:25.929Z,59.69
2018-01-24T13:49:34.763Z,58.64
2018-01-24T13:50:43.600Z,59.31
2018-01-24T13:51:52.437Z,59.22
2018-01-24T13:53:01.323Z,59.31
2018-01-24T13:54:10.161Z,60.07
2018-01-24T13:55:18.994Z,60.46
2018-01-24T13:56:27.830Z,60.46
2018-01-24T13:57:36.666Z,60.27
2018-01-24T13:58:45.604Z,61.32
2018-01-24T13:59:54.440Z,61.89
2018-01-24T14:01:03.279Z,61.89
2018-01-24T14:02:12.114Z,61.69
2018-01-24T14:03:20.948Z,60.36
2018-01-24T14:04:29.833Z,62.46
2018-01-24T14:05:38.941Z,62.18
2018-01-24T14:06:47.780Z,63.6
2018-01-24T14:07:56.615Z,64.09
2018-01-24T14:09:05.450Z,64.37
2018-01-24T14:10:14.337Z,64.37
2018-01-24T14:11:23.175Z,64.18
2018-01-24T14:12:32.010Z,65.14
2018-01-24T14:13:40.847Z,64.65
2018-01-24T14:14:49.684Z,65.04
2018-01-24T14:15:58.621Z,64.18
2018-01-24T14:17:07.458Z,64.94
2018-01-24T14:18:16.294Z,65.23
2018-01-24T14:19:25.403Z,65.42
2018-01-24T14:20:34.240Z,66.09
2018-01-24T14:21:43.075Z,66
2018-01-24T14:22:51.911Z,66.09
2018-01-24T14:24:00.748Z,66.66
2018-01-24T14:25:09.583Z,66.85
2018-01-24T14:26:18.418Z,66.47
2018-01-24T14:27:27.527Z,66.95
2018-01-24T14:28:36.399Z,66.95
2018-01-24T14:29:45.202Z,67.05
2018-01-24T14:30:54.312Z,67.81
2018-01-24T14:32:03.142Z,66.47
2018-01-24T14:33:12.027Z,68.19
2018-01-24T14:34:20.861Z,68.1
2018-01-24T14:35:29.694Z,68.19
2018-01-24T14:36:38.530Z,68.86
2018-01-24T14:37:47.365Z,68.86
2018-01-24T14:38:56.351Z,68.67
2018-01-24T14:40:05.193Z,68.86
2018-01-24T14:41:14.578Z,69.53
2018-01-24T14:42:23.413Z,69.72
2018-01-24T14:43:32.247Z,69.91
2018-01-24T14:44:41.089Z,70.2
2018-01-24T14:45:49.919Z,69.82
2018-01-24T14:46:58.757Z,70.48
2018-01-24T14:48:07.591Z,71.06
2018-01-24T14:49:16.427Z,71.25
2018-01-24T14:50:25.263Z,70.52
2018-01-24T14:51:34.100Z,70.96
2018-01-24T14:52:42.939Z,70.58
2018-01-24T14:53:51.776Z,70.52
2018-01-24T14:55:00.726Z,71.06
2018-01-24T14:56:09.638Z,71.34
2018-01-24T14:57:18.473Z,71.25
2018-01-24T14:58:27.311Z,71.15
2018-01-24T14:59:36.483Z,71.44
2018-01-24T15:00:45.593Z,71.06
2018-01-24T15:01:54.712Z,70.96
2018-01-24T15:03:03.550Z,71.06
2018-01-24T15:04:12.386Z,71.53
2018-01-24T15:05:21.225Z,71.25
2018-01-24T15:06:30.061Z,70.67
2018-01-24T15:07:38.910Z,71.25
2018-01-24T15:08:47.730Z,71.34
2018-01-24T15:09:56.888Z,71.06
2018-01-24T15:11:05.732Z,71.25
2018-01-24T15:12:14.568Z,71.06
2018-01-24T15:13:23.404Z,71.06
2018-01-24T15:14:32.237Z,71.15
2018-01-24T15:15:41.124Z,71.63
2018-01-24T15:16:49.971Z,71.72
2018-01-24T15:17:58.806Z,72.01
2018-01-24T15:19:07.641Z,71.53
2018-01-24T15:20:16.478Z,71.53
2018-01-24T15:21:25.363Z,71.25
2018-01-24T15:22:34.198Z,72.2
2018-01-24T15:23:43.042Z,71.72
2018-01-24T15:24:51.876Z,71.72
2018-01-24T15:26:00.711Z,71.34
2018-01-24T15:27:09.594Z,72.39
2018-01-24T15:28:23.463Z,71.63
2018-01-24T15:29:32.299Z,72.3
2018-01-24T15:30:41.138Z,71.72
2018-01-24T15:31:50.306Z,72.3
2018-01-24T15:32:59.225Z,72.2
2018-01-24T15:34:08.065Z,72.01
2018-01-24T15:35:16.950Z,71.92
2018-01-24T15:36:25.786Z,72.2
2018-01-24T15:37:34.621Z,71.92
2018-01-24T15:38:43.456Z,71.72
2018-01-24T15:39:52.292Z,71.63
2018-01-24T15:41:01.127Z,72.39
2018-01-24T15:42:09.967Z,71.92
2018-01-24T15:43:19.074Z,71.92
2018-01-24T15:44:28.011Z,71.34
2018-01-24T15:45:36.860Z,71.15
2018-01-24T15:46:45.696Z,71.63
2018-01-24T15:47:54.531Z,71.72
2018-01-24T15:49:03.368Z,72.39
2018-01-24T15:50:12.254Z,71.63
2018-01-24T15:51:21.092Z,71.63
2018-01-24T15:52:30.202Z,71.72
2018-01-24T15:53:39.037Z,71.06
2018-01-24T15:54:47.874Z,71.15
2018-01-24T15:55:56.709Z,71.34
2018-01-24T15:57:05.546Z,70.87
2018-01-24T15:58:14.380Z,71.63
2018-01-24T15:59:23.216Z,70.87
2018-01-24T16:00:32.324Z,70.1
2018-01-24T16:01:41.362Z,70.39
2018-01-24T16:02:50.195Z,70.1
2018-01-24T16:03:59.036Z,71.25
2018-01-24T16:05:07.876Z,70.48